VEJS/IXW METAR and TAF weather

Enter ICAO airport designator
Station Type Date Time Source
VEJS METAR 2020/01/21 12:00 UTC NOAA

VEJS 211200Z 00000KT 4000 HZ NSC 23/10 Q1016


Station Type Date Time Source
VEJS Decoded METAR 2020/01/21 12:00 UTC NOAA

Jamshedpur, India (VEJS) 22-49N 086-11E 142M
Jan 21, 2020 - 07:00 AM EST / 2020.01.21 1200 UTC
Wind: Calm:0
Visibility: 2 mile(s):0
Weather: haze
Temperature: 73 F (23 C)
Dew Point: 50 F (10 C)
Relative Humidity: 43%
Pressure (altimeter): 30.00 in. Hg (1016 hPa)
ob: VEJS 211200Z 00000KT 4000 HZ NSC 23/10 Q1016
cycle: 12

Station Type Date Time Source
VEJS TAF 2009/11/01 09:00 UTC NOAA

TAF VEJS 010900Z 0112/0121 36004KT 2500 HZ FEW020 SCT025 SCT100
BECMG 0116/0118 00000KT 2000 HZ FEW018 SCT
BECMG 0119/0121 00000KT 1600 BR

Example: see airport list